Time;durP1;ratioP1;P1;durP2;ratioP2;P2;SDS_P1;SDS_P2;PMS_P1;PMS_P2;Temp;Humidity;BMP_temperature;BMP_pressure;BME280_temperature;BME280_humidity;BME280_pressure;Samples;Min_cycle;Max_cycle;Signal;HPM_P1;HPM_P2
2024/04/18 00:00:39;;;;;;;14.88;10.35;;;;;;;7.97;100.00;98483.16;5418509;26;20462;-45
2024/04/18 00:03:05;;;;;;;22.83;18.33;;;;;;;7.86;100.00;98483.63;5418610;26;20462;-45
2024/04/18 00:05:31;;;;;;;16.30;10.05;;;;;;;7.68;100.00;98491.09;5418453;26;20018;-45
2024/04/18 00:07:57;;;;;;;11.57;7.03;;;;;;;7.67;100.00;98485.09;5418459;26;20035;-44
2024/04/18 00:10:23;;;;;;;9.23;6.93;;;;;;;7.72;100.00;98484.50;5418488;26;20014;-45
2024/04/18 00:12:48;;;;;;;11.23;5.88;;;;;;;7.68;100.00;98486.69;5416583;26;20008;-44
2024/04/18 00:15:16;;;;;;;19.00;15.05;;;;;;;7.66;100.00;98480.84;5418276;26;20000;-45
2024/04/18 00:17:42;;;;;;;17.33;11.43;;;;;;;7.60;100.00;98486.81;5418318;26;20396;-44
2024/04/18 00:20:10;;;;;;;16.50;8.60;;;;;;;7.53;100.00;98475.50;5418287;26;20015;-45
2024/04/18 00:22:35;;;;;;;8.18;4.32;;;;;;;7.54;100.00;98480.53;5416495;26;20004;-44
2024/04/18 00:25:01;;;;;;;12.55;9.00;;;;;;;7.60;100.00;98478.97;5417813;26;20453;-45
2024/04/18 00:27:27;;;;;;;12.77;4.85;;;;;;;7.57;100.00;98477.56;5417571;26;20008;-45
2024/04/18 00:29:53;;;;;;;4.80;3.38;;;;;;;7.60;100.00;98476.38;5418306;26;20341;-45
2024/04/18 00:32:19;;;;;;;6.53;3.53;;;;;;;7.69;100.00;98480.47;5416251;26;20011;-44
2024/04/18 00:34:44;;;;;;;24.58;21.83;;;;;;;7.66;100.00;98478.22;5416382;26;20011;-45
2024/04/18 00:37:10;;;;;;;25.95;17.75;;;;;;;7.57;100.00;98477.56;5417767;26;19999;-45
2024/04/18 00:39:36;;;;;;;18.27;11.50;;;;;;;7.49;100.00;98475.06;5416417;26;20101;-44
2024/04/18 00:42:01;;;;;;;10.32;6.43;;;;;;;7.49;100.00;98475.06;5417996;26;20073;-44
2024/04/18 00:44:28;;;;;;;13.30;9.32;;;;;;;7.39;100.00;98469.34;5418154;26;20345;-45
2024/04/18 00:46:55;;;;;;;14.82;8.80;;;;;;;7.30;100.00;98468.63;5386652;26;20075;-45
2024/04/18 00:49:21;;;;;;;14.40;9.05;;;;;;;7.31;100.00;98469.47;5416130;26;20013;-44
2024/04/18 00:51:48;;;;;;;36.60;32.78;;;;;;;7.33;100.00;98470.88;5417733;26;20010;-44
2024/04/18 00:54:14;;;;;;;24.83;16.05;;;;;;;7.37;100.00;98459.06;5417786;26;20390;-44
2024/04/18 00:56:44;;;;;;;15.77;10.85;;;;;;;7.43;100.00;98461.94;5417877;26;20010;-44
2024/04/18 00:59:11;;;;;;;37.40;33.03;;;;;;;7.42;100.00;98461.13;5415961;26;19999;-44
2024/04/18 01:01:37;;;;;;;12.95;8.98;;;;;;;7.42;100.00;98463.72;5417744;26;20076;-44
2024/04/18 01:04:03;;;;;;;13.00;10.52;;;;;;;7.47;100.00;98456.16;5417839;26;20007;-44
2024/04/18 01:06:29;;;;;;;22.35;17.52;;;;;;;7.54;100.00;98459.63;5416130;26;20540;-44
2024/04/18 01:08:56;;;;;;;6.75;5.88;;;;;;;7.56;100.00;98451.63;5417718;26;20003;-44
2024/04/18 01:11:21;;;;;;;17.10;15.23;;;;;;;7.55;100.00;98453.44;5415727;26;20084;-44
2024/04/18 01:13:47;;;;;;;9.35;6.90;;;;;;;7.45;100.00;98454.75;5415938;26;20582;-44
2024/04/18 01:16:13;;;;;;;9.40;8.40;;;;;;;7.38;100.00;98449.44;5417636;26;20379;-44
2024/04/18 01:18:38;;;;;;;15.43;9.55;;;;;;;7.44;100.00;98453.09;5416072;26;20457;-44
2024/04/18 01:21:04;;;;;;;30.05;27.00;;;;;;;7.50;100.00;98444.53;5415799;26;20018;-44
2024/04/18 01:23:30;;;;;;;9.80;7.53;;;;;;;7.46;100.00;98446.69;5417457;26;20010;-44
2024/04/18 01:25:56;;;;;;;18.30;16.48;;;;;;;7.49;100.00;98450.75;5386228;26;20003;-44
2024/04/18 01:28:22;;;;;;;24.85;20.77;;;;;;;7.51;100.00;98440.94;5417229;26;20011;-44
2024/04/18 01:30:47;;;;;;;11.32;9.15;;;;;;;7.58;100.00;98439.19;5415576;26;20014;-44
2024/04/18 01:33:13;;;;;;;12.07;9.80;;;;;;;7.62;100.00;98435.19;5417291;26;20357;-44
2024/04/18 01:35:39;;;;;;;13.65;12.13;;;;;;;7.72;100.00;98435.69;5415255;26;20446;-44
2024/04/18 01:38:05;;;;;;;9.80;8.00;;;;;;;7.62;100.00;98432.59;5416972;26;20000;-44
2024/04/18 01:40:30;;;;;;;39.70;35.55;;;;;;;7.59;100.00;98430.38;5415357;26;19995;-44
2024/04/18 01:42:56;;;;;;;10.13;7.65;;;;;;;7.63;100.00;98428.19;5415436;26;20434;-44
2024/04/18 01:45:22;;;;;;;10.68;8.07;;;;;;;7.54;100.00;98428.28;5417126;26;20461;-44
2024/04/18 01:47:49;;;;;;;36.00;32.20;;;;;;;7.54;100.00;98435.31;5417239;26;20000;-44
2024/04/18 01:50:14;;;;;;;9.18;6.70;;;;;;;7.53;100.00;98425.91;5415224;26;20004;-44
2024/04/18 01:52:40;;;;;;;8.90;6.05;;;;;;;7.42;100.00;98431.59;5416894;26;20013;-44
2024/04/18 01:55:07;;;;;;;17.08;14.52;;;;;;;7.33;100.00;98433.53;5385614;26;20004;-44
2024/04/18 01:57:33;;;;;;;13.70;12.25;;;;;;;7.30;100.00;98432.06;5415222;26;20082;-44
2024/04/18 01:59:59;;;;;;;9.30;6.07;;;;;;;7.30;100.00;98437.31;5415191;26;20418;-44
2024/04/18 02:02:25;;;;;;;12.98;11.68;;;;;;;7.23;100.00;98428.59;5416953;26;20470;-45
2024/04/18 02:04:50;;;;;;;19.17;17.10;;;;;;;7.25;100.00;98437.06;5416812;26;20014;-44
2024/04/18 02:07:16;;;;;;;15.10;12.30;;;;;;;7.15;100.00;98434.75;5416888;26;20015;-45
2024/04/18 02:09:42;;;;;;;8.13;6.72;;;;;;;7.24;100.00;98442.47;5416796;26;20007;-44
2024/04/18 02:12:08;;;;;;;8.40;7.40;;;;;;;7.36;100.00;98443.59;5416600;26;20005;-46
2024/04/18 02:14:34;;;;;;;12.70;8.68;;;;;;;7.20;100.00;98442.00;5414949;26;20027;-46
2024/04/18 02:17:00;;;;;;;14.95;11.45;;;;;;;7.29;100.00;98446.13;5416679;26;20109;-46
2024/04/18 02:19:26;;;;;;;19.00;13.45;;;;;;;7.34;100.00;98442.97;5416594;26;20490;-46
2024/04/18 02:21:52;;;;;;;11.43;6.72;;;;;;;7.38;100.00;98452.03;5414760;26;20009;-46
2024/04/18 02:24:18;;;;;;;29.83;23.90;;;;;;;7.34;100.00;98440.34;5416682;26;19999;-46
2024/04/18 02:26:43;;;;;;;8.57;7.60;;;;;;;7.32;100.00;98444.94;5416458;26;20010;-46
2024/04/18 02:29:10;;;;;;;13.00;8.07;;;;;;;7.24;100.00;98445.06;5416513;26;20049;-46
2024/04/18 02:31:39;;;;;;;12.15;6.05;;;;;;;7.28;100.00;98439.28;5416353;26;20000;-46
2024/04/18 02:34:05;;;;;;;8.85;5.43;;;;;;;7.19;100.00;98440.41;5416417;26;19999;-46
2024/04/18 02:36:30;;;;;;;17.02;10.38;;;;;;;7.12;100.00;98437.75;5416000;26;20452;-46
2024/04/18 02:38:56;;;;;;;16.20;11.40;;;;;;;7.12;100.00;98445.56;5416293;26;20438;-46
2024/04/18 02:41:22;;;;;;;21.92;10.73;;;;;;;7.14;100.00;98447.97;5414473;26;20023;-46
2024/04/18 02:43:52;;;;;;;10.32;5.95;;;;;;;7.20;100.00;98442.84;5416282;26;20010;-46
2024/04/18 02:46:19;;;;;;;22.17;17.55;;;;;;;7.24;100.00;98438.03;5416061;26;20000;-46
2024/04/18 02:48:44;;;;;;;45.83;33.58;;;;;;;7.34;100.00;98449.00;5415124;26;20012;-46
2024/04/18 02:51:10;;;;;;;25.38;17.73;;;;;;;7.34;100.00;98437.75;5414341;26;20019;-46
2024/04/18 02:53:36;;;;;;;25.40;17.52;;;;;;;7.35;100.00;98442.00;5415968;26;20411;-46
2024/04/18 02:56:01;;;;;;;15.98;10.57;;;;;;;7.34;100.00;98446.38;5414240;26;20450;-45
2024/04/18 02:58:27;;;;;;;16.58;10.25;;;;;;;7.38;100.00;98439.81;5416136;26;20454;-46
2024/04/18 03:00:52;;;;;;;11.25;8.73;;;;;;;7.49;100.00;98435.09;5415987;26;20010;-45
2024/04/18 03:03:18;;;;;;;8.13;5.82;;;;;;;7.51;100.00;98436.50;5414110;26;20010;-46
2024/04/18 03:05:44;;;;;;;12.40;7.78;;;;;;;7.53;100.00;98434.53;5415759;26;20337;-46
2024/04/18 03:08:10;;;;;;;10.48;6.95;;;;;;;7.49;100.00;98432.47;5414025;26;20466;-46
2024/04/18 03:10:36;;;;;;;5.60;4.30;;;;;;;7.52;100.00;98432.91;5415810;26;20004;-46
2024/04/18 03:13:02;;;;;;;10.30;5.28;;;;;;;7.60;100.00;98431.97;5415753;26;20438;-47
2024/04/18 03:15:27;;;;;;;13.02;8.23;;;;;;;7.54;100.00;98440.56;5384214;26;20434;-46
2024/04/18 03:17:58;;;;;;;12.60;7.85;;;;;;;7.52;100.00;98442.53;5415802;26;20373;-46
2024/04/18 03:20:24;;;;;;;10.15;5.47;;;;;;;7.51;100.00;98440.94;5415512;26;20000;-46
2024/04/18 03:22:50;;;;;;;8.35;6.88;;;;;;;7.52;100.00;98445.16;5413809;26;20338;-45
2024/04/18 03:25:15;;;;;;;10.57;6.50;;;;;;;7.49;100.00;98446.34;5413724;26;20010;-46
2024/04/18 03:27:41;;;;;;;12.82;8.98;;;;;;;7.42;100.00;98442.03;5415525;26;20045;-45
2024/04/18 03:30:07;;;;;;;6.70;3.72;;;;;;;7.30;100.00;98445.13;5415403;26;20444;-45
2024/04/18 03:32:36;;;;;;;48.83;40.83;;;;;;;7.26;100.00;98449.09;5415234;26;20068;-45
2024/04/18 03:35:03;;;;;;;14.63;11.00;;;;;;;7.35;100.00;98453.22;5413542;26;20000;-45
2024/04/18 03:37:29;;;;;;;23.55;19.58;;;;;;;7.39;100.00;98445.84;5415311;26;20044;-46
2024/04/18 03:39:57;;;;;;;6.55;4.68;;;;;;;7.35;100.00;98444.59;5415259;26;20014;-46
2024/04/18 03:42:23;;;;;;;7.13;2.78;;;;;;;7.08;100.00;98446.09;5413319;26;20018;-46
2024/04/18 03:44:49;;;;;;;76.47;62.58;;;;;;;6.96;100.00;98445.75;5413361;26;20439;-46
2024/04/18 03:47:14;;;;;;;25.10;21.33;;;;;;;6.92;100.00;98454.94;5415128;26;20015;-46
2024/04/18 03:49:40;;;;;;;26.40;19.17;;;;;;;6.87;100.00;98454.69;5415135;26;20048;-46
2024/04/18 03:52:06;;;;;;;10.63;8.95;;;;;;;6.95;100.00;98444.97;5414867;26;20471;-46
2024/04/18 03:54:33;;;;;;;24.33;21.73;;;;;;;7.12;100.00;98447.34;5415044;26;20010;-46
2024/04/18 03:56:58;;;;;;;49.40;42.65;;;;;;;7.22;100.00;98460.09;5414866;26;20069;-45
2024/04/18 03:59:24;;;;;;;11.93;7.80;;;;;;;7.05;100.00;98452.50;5414816;26;20016;-46
2024/04/18 04:01:50;;;;;;;5.20;4.57;;;;;;;6.96;100.00;98453.59;5418570;26;20474;-45
2024/04/18 04:04:15;;;;;;;8.18;6.45;;;;;;;6.78;100.00;98453.97;5416744;26;20447;-45
2024/04/18 04:06:41;;;;;;;12.63;8.23;;;;;;;6.83;100.00;98456.84;5418590;26;20000;-45
2024/04/18 04:09:07;;;;;;;12.00;10.77;;;;;;;6.98;100.00;98462.03;5418454;26;20003;-45
2024/04/18 04:11:33;;;;;;;7.35;5.65;;;;;;;7.02;100.00;98452.84;5418368;26;20076;-45
2024/04/18 04:14:01;;;;;;;10.02;7.18;;;;;;;7.02;100.00;98454.66;5416720;26;20000;-45
2024/04/18 04:16:28;;;;;;;13.75;9.73;;;;;;;7.00;100.00;98455.66;5418386;26;20003;-45
2024/04/18 04:18:55;;;;;;;7.90;3.58;;;;;;;6.98;100.00;98454.22;5418393;26;20000;-45
2024/04/18 04:21:22;;;;;;;8.43;6.97;;;;;;;6.94;100.00;98466.00;5418161;26;20010;-45
2024/04/18 04:23:48;;;;;;;10.23;7.72;;;;;;;7.06;100.00;98466.34;5418408;26;20003;-45
2024/04/18 04:26:13;;;;;;;10.98;7.07;;;;;;;6.98;100.00;98470.69;5416338;26;20076;-45
2024/04/18 04:28:39;;;;;;;18.60;15.75;;;;;;;7.00;100.00;98471.31;5418318;26;19999;-46
2024/04/18 04:31:05;;;;;;;16.80;14.10;;;;;;;7.12;100.00;98470.84;5418130;26;19999;-45
2024/04/18 04:33:33;;;;;;;31.15;28.20;;;;;;;7.24;100.00;98471.97;5417931;26;20000;-45
2024/04/18 04:35:59;;;;;;;41.40;37.40;;;;;;;7.29;100.00;98480.06;5416169;26;20032;-45
2024/04/18 04:38:25;;;;;;;7.70;3.58;;;;;;;7.41;100.00;98477.78;5416528;26;20003;-45
2024/04/18 04:40:51;;;;;;;12.18;10.63;;;;;;;7.45;100.00;98483.47;5386991;26;20345;-45
2024/04/18 04:43:17;;;;;;;19.13;16.30;;;;;;;7.55;100.00;98489.19;5418327;26;20003;-45
2024/04/18 04:45:42;;;;;;;14.63;9.48;;;;;;;7.55;100.00;98497.81;5416474;26;20011;-45
2024/04/18 04:48:08;;;;;;;39.05;35.08;;;;;;;7.57;100.00;98492.41;5418398;26;20003;-45
2024/04/18 04:50:40;;;;;;;6.63;3.28;;;;;;;7.59;100.00;98491.22;5418221;26;20538;-45
2024/04/18 04:53:07;;;;;;;28.92;26.05;;;;;;;7.63;100.00;98493.50;5418027;26;20484;-45
2024/04/18 04:55:33;;;;;;;14.57;12.30;;;;;;;7.57;100.00;98490.59;5417759;26;20474;-46
2024/04/18 04:57:58;;;;;;;10.23;8.40;;;;;;;7.56;100.00;98490.78;5417893;26;20452;-46
2024/04/18 05:00:24;;;;;;;21.80;18.33;;;;;;;7.55;100.00;98497.03;5417688;26;20445;-45
2024/04/18 05:02:50;;;;;;;5.70;4.95;;;;;;;7.63;100.00;98496.91;5417818;26;20357;-46
2024/04/18 05:05:15;;;;;;;20.27;17.05;;;;;;;7.61;100.00;98496.28;5417718;26;20017;-46
2024/04/18 05:07:41;;;;;;;29.08;26.05;;;;;;;7.65;100.00;98500.13;5417750;26;19999;-46
2024/04/18 05:10:07;;;;;;;10.82;8.13;;;;;;;7.76;100.00;98504.84;5417494;26;20408;-46
2024/04/18 05:12:32;;;;;;;17.88;13.23;;;;;;;7.84;100.00;98495.28;5416954;26;20003;-46
2024/04/18 05:14:58;;;;;;;10.30;5.47;;;;;;;7.96;100.00;98501.63;5417509;26;20018;-47
2024/04/18 05:17:24;;;;;;;14.88;13.25;;;;;;;7.97;100.00;98511.88;5417429;26;20061;-47
2024/04/18 05:19:50;;;;;;;37.08;28.65;;;;;;;7.93;100.00;98502.81;5415752;26;20178;-47
2024/04/18 05:22:15;;;;;;;11.70;4.05;;;;;;;7.95;100.00;98507.84;5417515;26;20004;-48
2024/04/18 05:24:41;;;;;;;9.43;4.43;;;;;;;8.01;100.00;98512.31;5415813;26;20400;-47
2024/04/18 05:27:07;;;;;;;74.88;67.47;;;;;;;7.98;100.00;98529.16;5417540;26;20373;-47
2024/04/18 05:32:17;;;;;;;13.35;7.82;;;;;;;7.88;100.00;98527.88;5416003;26;20405;-47
2024/04/18 05:34:43;;;;;;;25.60;18.63;;;;;;;7.92;100.00;98529.13;5417258;26;20011;-47
2024/04/18 05:37:08;;;;;;;7.70;5.13;;;;;;;7.90;100.00;98537.13;5415444;26;20350;-46
2024/04/18 05:39:34;;;;;;;11.82;5.45;;;;;;;7.85;100.00;98541.28;5417324;26;19999;-47
2024/04/18 05:42:00;;;;;;;15.95;12.02;;;;;;;7.79;100.00;98545.50;5417117;26;20014;-47
2024/04/18 05:44:25;;;;;;;23.73;11.95;;;;;;;7.75;100.00;98544.25;5417180;26;20014;-47
2024/04/18 05:46:51;;;;;;;17.75;14.63;;;;;;;7.80;100.00;98552.31;5417232;26;20000;-47
2024/04/18 05:49:20;;;;;;;36.05;28.50;;;;;;;7.82;100.00;98545.09;5417093;26;20468;-47
2024/04/18 05:51:49;;;;;;;9.38;5.60;;;;;;;7.91;100.00;98561.47;5416960;26;20004;-47
2024/04/18 05:54:15;;;;;;;15.10;9.32;;;;;;;7.87;100.00;98558.44;5416953;26;20014;-47
2024/04/18 05:56:40;;;;;;;32.78;24.92;;;;;;;7.74;100.00;98556.47;5417083;26;20031;-47
2024/04/18 05:59:06;;;;;;;15.25;12.75;;;;;;;7.71;100.00;98562.06;5416968;26;20011;-47
2024/04/18 06:01:32;;;;;;;11.23;5.85;;;;;;;7.75;100.00;98565.13;5415238;26;20013;-47
2024/04/18 06:03:57;;;;;;;6.78;4.80;;;;;;;7.75;100.00;98565.13;5416979;26;20010;-47
2024/04/18 06:06:23;;;;;;;15.77;11.45;;;;;;;7.82;100.00;98566.00;5417008;26;19999;-46
2024/04/18 06:08:51;;;;;;;9.07;7.80;;;;;;;7.92;100.00;98574.34;5417118;26;20072;-47
2024/04/18 06:11:17;;;;;;;7.70;5.15;;;;;;;7.97;100.00;98579.84;5416963;26;19999;-47
2024/04/18 06:13:43;;;;;;;11.15;4.88;;;;;;;8.03;100.00;98575.66;5416863;26;20484;-46
2024/04/18 06:16:10;;;;;;;8.43;3.30;;;;;;;8.04;100.00;98582.50;5414902;26;20445;-47
2024/04/18 06:18:36;;;;;;;16.20;12.60;;;;;;;8.07;100.00;98582.16;5415064;26;20478;-47
2024/04/18 06:21:02;;;;;;;13.60;5.60;;;;;;;8.05;100.00;98589.34;5416616;26;20003;-47
2024/04/18 06:23:27;;;;;;;8.40;4.20;;;;;;;8.11;100.00;98580.78;5415127;26;20007;-47
2024/04/18 06:25:53;;;;;;;21.45;18.50;;;;;;;8.17;100.00;98577.41;5414855;26;20035;-47
2024/04/18 06:28:18;;;;;;;12.57;9.90;;;;;;;8.25;100.00;98586.09;5414892;26;20015;-47
2024/04/18 06:30:44;;;;;;;13.00;3.80;;;;;;;8.35;100.00;98584.81;5416448;26;19999;-47
2024/04/18 06:33:10;;;;;;;10.32;4.13;;;;;;;8.43;100.00;98591.75;5414609;26;19999;-47
2024/04/18 06:35:36;;;;;;;12.60;3.55;;;;;;;8.50;100.00;98592.59;5416046;26;20003;-47
2024/04/18 06:38:02;;;;;;;7.85;3.95;;;;;;;8.48;100.00;98588.56;5414733;26;20076;-45
2024/04/18 06:40:28;;;;;;;21.80;16.17;;;;;;;8.44;100.00;98595.97;5416420;26;20014;-45
2024/04/18 06:42:55;;;;;;;14.68;5.78;;;;;;;8.49;100.00;98598.84;5414605;26;20004;-45
2024/04/18 06:45:21;;;;;;;10.18;8.18;;;;;;;8.79;100.00;98603.88;5416325;26;20006;-45
2024/04/18 06:47:48;;;;;;;8.57;3.70;;;;;;;9.01;100.00;98588.91;5416260;26;20080;-45
2024/04/18 06:50:17;;;;;;;23.90;15.55;;;;;;;9.10;100.00;98600.88;5415991;26;20000;-45
2024/04/18 06:52:43;;;;;;;43.10;5.22;;;;;;;9.17;100.00;98600.88;5414275;26;20014;-45
2024/04/18 06:55:08;;;;;;;14.38;5.63;;;;;;;9.22;100.00;98597.72;5414210;26;19999;-45
2024/04/18 06:57:34;;;;;;;56.88;46.85;;;;;;;9.44;100.00;98599.22;5414272;26;20438;-45
2024/04/18 07:00:01;;;;;;;106.45;10.75;;;;;;;9.54;100.00;98591.81;5415962;26;20083;-45
2024/04/18 07:02:26;;;;;;;170.48;29.60;;;;;;;9.57;100.00;98595.84;5415869;26;19999;-45
2024/04/18 07:04:52;;;;;;;101.10;23.30;;;;;;;9.68;100.00;98603.16;5414246;26;20457;-45
2024/04/18 07:07:18;;;;;;;26.05;6.03;;;;;;;9.91;100.00;98609.88;5414206;26;20018;-45
2024/04/18 07:09:43;;;;;;;15.38;11.13;;;;;;;9.91;100.00;98607.25;5414153;26;20018;-45
2024/04/18 07:12:09;;;;;;;11.82;6.20;;;;;;;9.81;100.00;98610.22;5413800;26;20068;-45
2024/04/18 07:14:35;;;;;;;8.27;4.88;;;;;;;9.68;100.00;98608.38;5415829;26;20003;-45
2024/04/18 07:17:00;;;;;;;19.17;13.85;;;;;;;9.56;100.00;98615.19;5413911;26;20415;-45
2024/04/18 07:19:26;;;;;;;22.00;13.98;;;;;;;9.57;100.00;98628.06;5415595;26;20003;-45
2024/04/18 07:21:52;;;;;;;10.45;3.90;;;;;;;9.59;100.00;98617.41;5415669;26;20000;-45
2024/04/18 07:24:18;;;;;;;14.57;8.38;;;;;;;9.71;100.00;98610.59;5413792;26;20004;-45
2024/04/18 07:26:43;;;;;;;8.18;4.78;;;;;;;9.92;100.00;98619.31;5415440;26;20337;-45
2024/04/18 07:29:09;;;;;;;25.73;19.42;;;;;;;10.17;100.00;98615.16;5415423;26;20519;-45
2024/04/18 07:31:35;;;;;;;8.07;3.97;;;;;;;10.38;100.00;98629.13;5415323;26;20010;-45
2024/04/18 07:34:01;;;;;;;22.02;11.93;;;;;;;10.51;100.00;98626.53;5415291;26;20004;-46
2024/04/18 07:36:26;;;;;;;12.75;3.63;;;;;;;10.48;100.00;98629.53;5418045;26;20010;-45
2024/04/18 07:38:52;;;;;;;30.23;26.33;;;;;;;10.48;100.00;98634.00;5418908;26;20338;-46
2024/04/18 07:41:18;;;;;;;11.20;4.78;;;;;;;10.42;100.00;98640.03;5417077;26;19999;-45
2024/04/18 07:43:43;;;;;;;10.15;4.53;;;;;;;10.38;100.00;98644.88;5418920;26;20015;-46
2024/04/18 07:46:12;;;;;;;12.57;6.07;;;;;;;10.40;100.00;98640.22;5418925;26;20403;-45
2024/04/18 07:48:39;;;;;;;12.75;7.45;;;;;;;10.61;100.00;98641.09;5418836;26;20036;-45
2024/04/18 07:51:04;;;;;;;5.85;3.28;;;;;;;11.33;100.00;98650.69;5418753;26;20003;-45
2024/04/18 07:53:30;;;;;;;8.73;3.50;;;;;;;11.33;100.00;98642.03;5418717;26;20057;-46
2024/04/18 07:55:56;;;;;;;7.97;4.95;;;;;;;11.47;100.00;98645.38;5418752;26;20012;-45
2024/04/18 07:58:22;;;;;;;18.38;6.55;;;;;;;11.83;100.00;98637.00;5417034;26;20000;-45
2024/04/18 08:00:51;;;;;;;6.93;4.28;;;;;;;12.83;100.00;98640.81;5418704;26;20435;-45
2024/04/18 08:03:16;;;;;;;5.25;2.63;;;;;;;13.62;100.00;98636.56;5416797;26;20031;-45
2024/04/18 08:05:43;;;;;;;8.32;1.92;;;;;;;15.36;100.00;98635.59;5418616;26;19999;-46
2024/04/18 08:08:08;;;;;;;8.48;3.72;;;;;;;16.55;100.00;98633.31;5418584;26;20011;-46
2024/04/18 08:10:34;;;;;;;4.32;1.90;;;;;;;16.26;100.00;98632.53;5418573;26;20000;-45
2024/04/18 08:13:00;;;;;;;6.10;2.65;;;;;;;15.67;100.00;98641.47;5418357;26;20007;-46
2024/04/18 08:15:26;;;;;;;5.25;2.25;;;;;;;15.44;100.00;98644.22;5387023;26;20010;-46
2024/04/18 08:17:52;;;;;;;4.07;2.33;;;;;;;15.91;100.00;98647.53;5416761;26;20007;-46
2024/04/18 08:20:17;;;;;;;6.10;1.83;;;;;;;17.96;100.00;98641.88;5418360;26;20465;-46
2024/04/18 08:22:43;;;;;;;28.83;25.90;;;;;;;18.58;100.00;98637.16;5416555;26;20036;-45
2024/04/18 08:25:09;;;;;;;7.43;2.25;;;;;;;17.35;98.78;98637.41;5418392;26;20068;-45
2024/04/18 08:27:35;;;;;;;8.45;1.80;;;;;;;15.63;93.80;98652.78;5416465;26;20008;-45
2024/04/18 08:30:01;;;;;;;7.18;2.67;;;;;;;14.31;100.00;98660.06;5416358;26;20008;-45
2024/04/18 08:32:27;;;;;;;6.20;1.50;;;;;;;13.23;100.00;98658.88;5418160;26;20511;-45
2024/04/18 08:34:53;;;;;;;6.65;2.00;;;;;;;12.51;100.00;98675.88;5418252;26;20015;-45
2024/04/18 08:37:19;;;;;;;2.88;1.60;;;;;;;12.04;100.00;98677.97;5418170;26;20011;-45
2024/04/18 08:39:44;;;;;;;7.13;4.65;;;;;;;11.88;100.00;98681.06;5418313;26;19999;-45
2024/04/18 08:42:14;;;;;;;4.07;1.90;;;;;;;11.62;100.00;98685.38;5418392;26;19999;-45
2024/04/18 08:44:40;;;;;;;6.38;1.80;;;;;;;11.29;100.00;98683.66;5418420;26;20443;-45
2024/04/18 08:47:08;;;;;;;8.40;2.15;;;;;;;11.02;100.00;98677.59;5417456;26;20315;-45
2024/04/18 08:49:37;;;;;;;13.43;2.90;;;;;;;10.75;100.00;98689.94;5418332;26;20421;-45
2024/04/18 08:52:09;;;;;;;9.48;3.13;;;;;;;10.64;100.00;98690.53;5418054;26;20015;-46
2024/04/18 08:54:35;;;;;;;27.88;11.43;;;;;;;10.77;100.00;98696.59;5416516;26;20434;-46
2024/04/18 08:57:07;;;;;;;6.93;4.35;;;;;;;11.11;100.00;98699.25;5417769;26;20496;-45
2024/04/18 08:59:32;;;;;;;20.65;10.77;;;;;;;11.52;100.00;98698.94;5417905;26;20011;-45
2024/04/18 09:02:00;;;;;;;15.48;4.32;;;;;;;12.27;100.00;98702.94;5415958;26;20008;-45
2024/04/18 09:04:26;;;;;;;8.57;2.58;;;;;;;13.62;100.00;98686.69;5416077;26;20039;-46
2024/04/18 09:06:51;;;;;;;5.72;2.03;;;;;;;14.43;100.00;98682.03;5417796;26;20000;-45
2024/04/18 09:09:18;;;;;;;7.90;2.35;;;;;;;16.58;100.00;98681.31;5417632;26;19999;-46
2024/04/18 09:11:47;;;;;;;7.32;3.92;;;;;;;18.71;100.00;98668.59;5417544;26;20027;-46
2024/04/18 09:14:13;;;;;;;7.65;2.90;;;;;;;20.04;100.00;98671.22;5417570;26;20000;-44
2024/04/18 09:16:38;;;;;;;6.53;2.55;;;;;;;20.97;100.00;98672.94;5415825;26;20011;-45
2024/04/18 09:19:04;;;;;;;5.20;3.28;;;;;;;20.37;99.81;98675.31;5417629;26;20011;-44
2024/04/18 09:21:30;;;;;;;7.32;1.70;;;;;;;19.06;100.00;98677.94;5417495;26;20001;-44
2024/04/18 09:23:59;;;;;;;13.60;2.35;;;;;;;17.86;100.00;98679.72;5417605;26;20024;-44
2024/04/18 09:26:28;;;;;;;7.30;1.80;;;;;;;18.40;100.00;98678.19;5417300;26;19999;-44
2024/04/18 09:28:58;;;;;;;6.22;2.28;;;;;;;19.05;97.67;98684.31;5417355;26;20010;-44
2024/04/18 09:31:26;;;;;;;5.20;1.92;;;;;;;18.29;97.48;98682.56;5417372;26;20007;-44
2024/04/18 09:33:52;;;;;;;6.18;1.52;;;;;;;17.62;100.00;98691.63;5417309;26;20000;-43
2024/04/18 09:36:19;;;;;;;4.70;2.00;;;;;;;16.92;94.30;98681.38;5417086;26;20011;-43
2024/04/18 09:38:47;;;;;;;4.20;1.70;;;;;;;16.31;96.17;98694.34;5417279;26;20011;-44
2024/04/18 09:41:23;;;;;;;5.00;1.55;;;;;;;15.86;98.82;98695.09;5415401;26;20023;-44
2024/04/18 09:44:14;;;;;;;5.60;2.88;;;;;;;15.44;100.00;98694.44;5417510;26;20407;-46
2024/04/18 09:46:45;;;;;;;6.93;2.42;;;;;;;14.79;100.00;98698.78;5417149;26;20094;-46
2024/04/18 09:49:11;;;;;;;6.40;1.83;;;;;;;14.10;100.00;98701.75;5417245;26;20003;-46
2024/04/18 09:51:39;;;;;;;22.35;2.67;;;;;;;13.51;100.00;98709.31;5417012;26;20101;-46
2024/04/18 09:54:05;;;;;;;23.17;4.93;;;;;;;13.09;100.00;98705.63;5417074;26;20019;-46
2024/04/18 09:56:33;;;;;;;12.40;1.98;;;;;;;12.77;100.00;98711.75;5416947;26;20004;-45
2024/04/18 09:59:00;;;;;;;9.15;3.88;;;;;;;12.66;100.00;98719.53;5416794;26;20473;-46
2024/04/18 10:01:26;;;;;;;4.15;1.85;;;;;;;14.64;100.00;98709.78;5417029;26;20449;-46
2024/04/18 10:03:51;;;;;;;3.60;1.10;;;;;;;16.82;92.51;98691.00;5415189;26;20003;-46
2024/04/18 10:06:22;;;;;;;4.35;1.65;;;;;;;18.58;79.08;98671.69;5415170;26;20054;-45
2024/04/18 10:08:50;;;;;;;7.50;2.33;;;;;;;19.80;66.83;98682.38;5416994;26;20003;-44
2024/04/18 10:11:20;;;;;;;5.45;3.00;;;;;;;19.79;61.60;98675.41;5416735;26;20077;-44
2024/04/18 10:13:46;;;;;;;5.03;1.80;;;;;;;20.43;66.17;98692.91;5416729;26;20018;-43
2024/04/18 10:16:13;;;;;;;4.65;1.35;;;;;;;19.15;56.66;98684.38;5416758;26;20003;-44
2024/04/18 10:18:40;;;;;;;2.88;1.50;;;;;;;17.45;58.98;98692.47;5416750;26;20007;-43
2024/04/18 10:21:12;;;;;;;5.63;1.95;;;;;;;15.94;61.19;98710.59;5416604;26;20003;-43
2024/04/18 10:23:48;;;;;;;4.10;1.10;;;;;;;14.94;65.90;98708.91;5416877;26;20007;-45
2024/04/18 10:26:15;;;;;;;4.10;1.00;;;;;;;14.44;73.56;98715.31;5414756;26;20022;-45
2024/04/18 10:28:41;;;;;;;5.20;1.67;;;;;;;15.57;69.90;98704.78;5416504;26;20160;-45
2024/04/18 10:31:08;;;;;;;3.22;1.00;;;;;;;17.74;66.59;98706.38;5414713;26;20007;-45
2024/04/18 10:33:34;;;;;;;4.00;1.02;;;;;;;19.79;65.19;98698.59;5414653;26;20000;-44
2024/04/18 10:36:00;;;;;;;5.15;2.15;;;;;;;19.22;56.68;98692.94;5416207;26;20003;-43
2024/04/18 10:38:27;;;;;;;3.25;0.98;;;;;;;17.71;58.03;98709.53;5416675;26;20341;-43
2024/04/18 10:40:59;;;;;;;4.57;1.23;;;;;;;16.67;62.08;98721.47;5416872;26;20003;-44
2024/04/18 10:43:27;;;;;;;230.43;206.05;;;;;;;15.92;61.85;98704.75;5416606;26;20013;-44
2024/04/18 10:45:56;;;;;;;14.25;12.85;;;;;;;15.91;64.13;98720.84;5414750;26;20003;-43
2024/04/18 10:48:22;;;;;;;142.50;126.90;;;;;;;15.48;65.56;98716.75;5414767;26;20003;-43
2024/04/18 10:50:51;;;;;;;13.77;8.68;;;;;;;14.92;69.52;98719.72;5416439;26;20003;-43
2024/04/18 10:53:18;;;;;;;18.13;13.70;;;;;;;14.34;69.44;98721.13;5416576;26;20461;-46
2024/04/18 10:55:44;;;;;;;14.77;10.23;;;;;;;13.89;66.54;98723.34;5414633;26;20012;-46
2024/04/18 10:58:11;;;;;;;9.63;8.45;;;;;;;13.47;67.52;98733.72;5416472;26;20014;-45
2024/04/18 11:00:38;;;;;;;4.82;1.85;;;;;;;13.15;69.88;98728.47;5414504;26;20400;-45
2024/04/18 11:03:04;;;;;;;5.80;1.52;;;;;;;14.55;74.14;98721.69;5416076;26;20004;-45
2024/04/18 11:05:30;;;;;;;6.22;3.58;;;;;;;16.63;72.21;98720.34;5414318;26;20003;-46
2024/04/18 11:07:56;;;;;;;3.22;1.67;;;;;;;18.66;68.85;98697.81;5415956;26;20012;-47
2024/04/18 11:10:24;;;;;;;39.13;5.60;;;;;;;19.05;64.74;98695.75;5417329;26;20076;-44
2024/04/18 11:12:50;;;;;;;5.43;1.35;;;;;;;17.93;61.58;98709.56;5417547;26;20024;-44
2024/04/18 11:15:16;;;;;;;11.90;1.65;;;;;;;16.40;58.77;98709.84;5419424;26;20346;-43
2024/04/18 11:17:42;;;;;;;4.53;1.42;;;;;;;15.33;65.74;98728.59;5358934;26;20010;-43
2024/04/18 11:20:11;;;;;;;5.35;1.38;;;;;;;14.34;65.82;98722.97;5419166;26;20430;-45
2024/04/18 11:22:38;;;;;;;10.88;1.52;;;;;;;13.57;70.30;98734.81;5419136;26;20018;-45